D/T METAR WX W/DIR W/SPE G/SPE TEMP DEWP
18/02/19 09:50 EGTC 180950Z 17011KT 9999 FEW011 SCT038 09/08 Q1013 S (170°) 12.7mph 9°C 8°C
18/02/19 09:20 EGTC 180920Z 18013KT 9999 -DZ FEW012 SCT041 09/08 Q1013 -DZ S (180°) 15.0mph 9°C 8°C
18/02/19 08:20 EGTC 180820Z 19011KT 9999 FEW011 08/08 Q1013 S (190°) 12.7mph 8°C 8°C
18/02/19 07:50 EGTC 180750Z 18012KT 9000 FEW012 08/08 Q1013 S (180°) 13.8mph 8°C 8°C
18/02/19 07:20 EGTC 180720Z 18010KT 9000 FEW012 08/07 Q1013 S (180°) 11.5mph 8°C 7°C
15/02/19 17:50 EGTC 151750Z 17007KT CAVOK 11/04 Q1023 S (170°) 8.1mph 11°C 4°C
15/02/19 16:50 EGTC 151650Z 17007KT CAVOK 13/04 Q1023 S (170°) 8.1mph 13°C 4°C
15/02/19 16:20 EGTC 151620Z 19008KT CAVOK 14/05 Q1024 S (190°) 9.2mph 14°C 5°C
15/02/19 15:20 EGTC 151520Z 19010KT CAVOK 14/04 Q1024 S (190°) 11.5mph 14°C 4°C
15/02/19 14:50 EGTC 151450Z 20014KT CAVOK 14/05 Q1024 SSW (200°) 16.1mph 14°C 5°C
15/02/19 14:20 EGTC 151420Z 20011KT CAVOK 14/05 Q1025 SSW (200°) 12.7mph 14°C 5°C
15/02/19 13:50 EGTC 151350Z 20011KT CAVOK 14/05 Q1025 SSW (200°) 12.7mph 14°C 5°C
15/02/19 13:20 EGTC 151320Z 20010KT CAVOK 14/05 Q1025 SSW (200°) 11.5mph 14°C 5°C
15/02/19 12:50 EGTC 151250Z 17009KT CAVOK 13/07 Q1025 S (170°) 10.4mph 13°C 7°C
15/02/19 12:20 EGTC 151220Z 17008KT 8000 NSC 12/07 Q1026 S (170°) 9.2mph 12°C 7°C
15/02/19 11:50 EGTC 151150Z 17007KT 130V190 7000 NSC 11/06 Q1026 S (170°) 8.1mph 11°C 6°C
15/02/19 11:20 EGTC 151120Z 17006KT 7000 NSC 10/06 Q1026 S (170°) 6.9mph 10°C 6°C
15/02/19 10:50 EGTC 151050Z 17007KT 7000 NSC 09/06 Q1026 S (170°) 8.1mph 9°C 6°C
15/02/19 10:20 EGTC 151020Z 18007KT 6000 NSC 09/06 Q1026 S (180°) 8.1mph 9°C 6°C
15/02/19 09:20 EGTC 150920Z 18007KT 3500 BR NSC 06/05 Q1027 BR S (180°) 8.1mph 6°C 5°C
15/02/19 08:20 EGTC 150820Z 17007KT 3000 BR NSC 04/04 Q1027 BR S (170°) 8.1mph 4°C 4°C
15/02/19 07:50 EGTC 150750Z 16004KT 2500 BR NSC 04/04 Q1027 BR SSE (160°) 4.6mph 4°C 4°C
15/02/19 07:20 EGTC 150720Z 19002KT 2500 BR NSC 02/01 Q1027 BR S (190°) 2.3mph 2°C 1°C
14/02/19 17:50 EGTC 141750Z 14004KT CAVOK 09/04 Q1029 SE (140°) 4.6mph 9°C 4°C
14/02/19 17:20 EGTC 141720Z 11003KT CAVOK 10/03 Q1029 ESE (110°) 3.5mph 10°C 3°C
14/02/19 16:50 EGTC 141650Z 14003KT CAVOK 12/04 Q1029 SE (140°) 3.5mph 12°C 4°C
14/02/19 16:20 EGTC 141620Z 19005KT 140V210 CAVOK 12/03 Q1029 S (190°) 5.8mph 12°C 3°C
14/02/19 15:50 EGTC 141550Z 17005KT CAVOK 13/03 Q1030 S (170°) 5.8mph 13°C 3°C
14/02/19 15:20 EGTC 141520Z 17006KT CAVOK 14/03 Q1030 S (170°) 6.9mph 14°C 3°C
14/02/19 14:50 EGTC 141450Z 14007KT CAVOK 14/04 Q1030 SE (140°) 8.1mph 14°C 4°C
14/02/19 14:20 EGTC 141420Z 17009KT CAVOK 13/01 Q1030 S (170°) 10.4mph 13°C 1°C
14/02/19 13:50 EGTC 141350Z 15006KT 100V190 CAVOK 13/03 Q1030 SSE (150°) 6.9mph 13°C 3°C
14/02/19 13:20 EGTC 141320Z 14007KT CAVOK 12/05 Q1031 SE (140°) 8.1mph 12°C 5°C
14/02/19 12:50 EGTC 141250Z 15005KT CAVOK 12/04 Q1031 SSE (150°) 5.8mph 12°C 4°C
14/02/19 12:20 EGTC 141220Z 17007KT 140V210 CAVOK 12/04 Q1031 S (170°) 8.1mph 12°C 4°C
14/02/19 11:50 EGTC 141150Z 17005KT 130V210 CAVOK 11/04 Q1032 S (170°) 5.8mph 11°C 4°C
14/02/19 11:20 EGTC 141120Z 16004KT 140V200 CAVOK 10/05 Q1032 SSE (160°) 4.6mph 10°C 5°C
14/02/19 10:50 EGTC 141050Z 19006KT CAVOK 09/06 Q1032 S (190°) 6.9mph 9°C 6°C
14/02/19 10:20 EGTC 141020Z 16006KT CAVOK 08/06 Q1032 SSE (160°) 6.9mph 8°C 6°C
14/02/19 09:50 EGTC 140950Z 14005KT CAVOK 07/05 Q1032 SE (140°) 5.8mph 7°C 5°C
14/02/19 09:20 EGTC 140920Z 17004KT CAVOK 06/05 Q1032 S (170°) 4.6mph 6°C 5°C
14/02/19 08:50 EGTC 140850Z 20005KT CAVOK 05/05 Q1032 SSW (200°) 5.8mph 5°C 5°C
14/02/19 08:20 EGTC 140820Z 17003KT 7000 NSC 03/03 Q1032 S (170°) 3.5mph 3°C 3°C
14/02/19 07:20 EGTC 140720Z 19003KT 7000 NSC 02/02 Q1031 S (190°) 3.5mph 2°C 2°C
13/02/19 17:50 EGTC 131750Z 19011KT CAVOK 08/06 Q1030 S (190°) 12.7mph 8°C 6°C
13/02/19 17:20 EGTC 131720Z 20011KT CAVOK 09/06 Q1030 SSW (200°) 12.7mph 9°C 6°C
13/02/19 16:50 EGTC 131650Z 20013KT CAVOK 09/06 Q1030 SSW (200°) 15.0mph 9°C 6°C
13/02/19 16:20 EGTC 131620Z 21015KT 9999 FEW024 10/06 Q1030 SSW (210°) 17.3mph 10°C 6°C
13/02/19 15:50 EGTC 131550Z 21015KT 9999 FEW024 10/07 Q1031 SSW (210°) 17.3mph 10°C 7°C
13/02/19 14:50 EGTC 131450Z 22010KT 9999 FEW024 11/07 Q1031 SW (220°) 11.5mph 11°C 7°C
13/02/19 14:20 EGTC 131420Z 21014KT 9999 FEW023 11/07 Q1031 SSW (210°) 16.1mph 11°C 7°C
13/02/19 13:50 EGTC 131350Z 21015KT 9999 FEW025 11/07 Q1031 SSW (210°) 17.3mph 11°C 7°C
13/02/19 13:20 EGTC 131320Z 22017KT 9999 FEW025 11/06 Q1031 SW (220°) 19.6mph 11°C 6°C
13/02/19 12:50 EGTC 131250Z 21015KT 9999 FEW016 10/06 Q1031 SSW (210°) 17.3mph 10°C 6°C
13/02/19 12:20 EGTC 131220Z 21017KT CAVOK 10/07 Q1031 SSW (210°) 19.6mph 10°C 7°C
13/02/19 11:50 EGTC 131150Z 21016KT CAVOK 09/06 Q1031 SSW (210°) 18.4mph 9°C 6°C
13/02/19 10:20 EGTC 131020Z 21013KT CAVOK 09/07 Q1031 SSW (210°) 15.0mph 9°C 7°C
13/02/19 09:50 EGTC 130950Z 20013KT CAVOK 09/07 Q1031 SSW (200°) 15.0mph 9°C 7°C
13/02/19 08:50 EGTC 130850Z 21008KT 9999 SCT025 08/06 Q1032 SSW (210°) 9.2mph 8°C 6°C
13/02/19 08:20 EGTC 130820Z 21011KT 9999 BKN025 08/07 Q1032 SSW (210°) 12.7mph 8°C 7°C
13/02/19 07:20 EGTC 130720Z 21010KT 9999 BKN017 08/07 Q1031 SSW (210°) 11.5mph 8°C 7°C
12/02/19 17:50 EGTC 121750Z 22012KT 9999 FEW024 08/06 Q1031 SW (220°) 13.8mph 8°C 6°C
12/02/19 17:20 EGTC 121720Z 22012KT 9999 BKN024 09/07 Q1031 SW (220°) 13.8mph 9°C 7°C
12/02/19 16:50 EGTC 121650Z 22013KT 9999 BKN024 09/06 Q1031 SW (220°) 15.0mph 9°C 6°C
12/02/19 16:20 EGTC 121620Z 22011KT 9999 BKN023 10/07 Q1031 SW (220°) 12.7mph 10°C 7°C
12/02/19 15:50 EGTC 121550Z 22010KT 9999 BKN022 10/07 Q1031 SW (220°) 11.5mph 10°C 7°C
12/02/19 15:20 EGTC 121520Z 24010KT 9999 BKN022 10/06 Q1031 WSW (240°) 11.5mph 10°C 6°C
12/02/19 14:50 EGTC 121450Z 24010KT 9999 FEW017 BKN024 10/06 Q1031 WSW (240°) 11.5mph 10°C 6°C
12/02/19 14:20 EGTC 121420Z 23010KT 9999 FEW017 BKN028 10/07 Q1031 SW (230°) 11.5mph 10°C 7°C
12/02/19 13:50 EGTC 121350Z 23011KT 9999 FEW017 SCT030 10/07 Q1031 SW (230°) 12.7mph 10°C 7°C
12/02/19 13:20 EGTC 121320Z 23013KT 9999 FEW015 SCT030 09/06 Q1031 SW (230°) 15.0mph 9°C 6°C
12/02/19 12:50 EGTC 121250Z 23012KT 9999 FEW015 08/06 Q1031 SW (230°) 13.8mph 8°C 6°C
12/02/19 12:20 EGTC 121220Z 21010KT 9999 FEW020 08/06 Q1031 SSW (210°) 11.5mph 8°C 6°C
12/02/19 11:50 EGTC 121150Z 23010KT CAVOK 07/06 Q1031 SW (230°) 11.5mph 7°C 6°C
12/02/19 10:50 EGTC 121050Z 22011KT CAVOK 06/05 Q1032 SW (220°) 12.7mph 6°C 5°C
12/02/19 10:20 EGTC 121020Z 22011KT CAVOK 05/04 Q1032 SW (220°) 12.7mph 5°C 4°C
12/02/19 09:50 EGTC 120950Z 22008KT CAVOK 05/04 Q1032 SW (220°) 9.2mph 5°C 4°C
12/02/19 08:50 EGTC 120850Z 22010KT CAVOK 04/04 Q1032 SW (220°) 11.5mph 4°C 4°C
12/02/19 08:20 EGTC 120820Z 23009KT CAVOK 02/02 Q1031 SW (230°) 10.4mph 2°C 2°C
12/02/19 07:20 EGTC 120720Z 23007KT CAVOK 01/01 Q1031 SW (230°) 8.1mph 1°C 1°C
11/02/19 17:50 EGTC 111750Z 00000KT CAVOK 04/03 Q1029 N (0°) 4°C 3°C
11/02/19 17:20 EGTC 111720Z 34003KT 9999 FEW030 04/02 Q1029 NNW (340°) 3.5mph 4°C 2°C
11/02/19 16:50 EGTC 111650Z 00000KT 9999 FEW030 06/03 Q1028 N (0°) 6°C 3°C
11/02/19 16:20 EGTC 111620Z 01003KT 9999 FEW029 07/04 Q1028 N (10°) 3.5mph 7°C 4°C
11/02/19 15:50 EGTC 111550Z 36005KT 330V030 9999 SCT030 08/04 Q1028 N (360°) 5.8mph 8°C 4°C
11/02/19 15:20 EGTC 111520Z 34005KT 310V030 9999 BKN029 08/04 Q1028 NNW (340°) 5.8mph 8°C 4°C
11/02/19 14:50 EGTC 111450Z 32005KT 9999 BKN027 08/04 Q1027 NW (320°) 5.8mph 8°C 4°C
11/02/19 14:20 EGTC 111420Z 31006KT 280V010 9999 BKN025 08/04 Q1027 NW (310°) 6.9mph 8°C 4°C
11/02/19 13:50 EGTC 111350Z 34006KT 300V010 9999 SCT025 08/04 Q1026 NNW (340°) 6.9mph 8°C 4°C
11/02/19 13:20 EGTC 111320Z 33007KT 280V010 9999 SCT025 08/03 Q1026 NNW (330°) 8.1mph 8°C 3°C
11/02/19 12:50 EGTC 111250Z 34007KT 320V010 9999 SCT025 08/03 Q1026 NNW (340°) 8.1mph 8°C 3°C
11/02/19 12:20 EGTC 111220Z 32008KT 280V360 9999 FEW018 08/04 Q1026 NW (320°) 9.2mph 8°C 4°C
11/02/19 11:50 EGTC 111150Z 33008KT 290V010 9999 FEW015 07/03 Q1025 NNW (330°) 9.2mph 7°C 3°C
11/02/19 11:20 EGTC 111120Z 33009KT 290V010 9999 FEW012 SCT032 07/04 Q1024 NNW (330°) 10.4mph 7°C 4°C
11/02/19 10:20 EGTC 111020Z 30008KT 260V330 FEW035 06/04 Q1023 WNW (300°) 9.2mph 6°C 4°C
11/02/19 09:50 EGTC 110950Z 30007KT 260V320 CAVOK 05/04 Q1022 WNW (300°) 8.1mph 5°C 4°C
11/02/19 08:50 EGTC 110850Z 25004KT CAVOK 04/03 Q1021 WSW (250°) 4.6mph 4°C 3°C
11/02/19 08:20 EGTC 110820Z 27004KT CAVOK 03/02 Q1020 W (270°) 4.6mph 3°C 2°C
11/02/19 07:20 EGTC 110720Z 28004KT 9999 FEW024 01/01 Q1018 W (280°) 4.6mph 1°C 1°C
8/02/19 17:50 EGTC 081750Z 21013KT 9999 FEW018 BKN046 07/06 Q0990 SSW (210°) 15.0mph 7°C 6°C
8/02/19 17:20 EGTC 081720Z 21013KT 9999 -DZ BKN044 08/07 Q0990 RESHRA -DZ SSW (210°) 15.0mph 8°C 7°C
8/02/19 16:20 EGTC 081620Z 23014KT 2500 RA BKN022CB 08/08 Q0990 RESHRA RA SW (230°) 16.1mph 8°C 8°C
8/02/19 15:50 EGTC 081550Z 22023G38KT 2000 +SHRA BKN015CB 10/09 Q0991 +SHRA SW (220°) 26.5mph 43.7mph 10°C 9°C
8/02/19 15:20 EGTC 081520Z 21030G41KT 9999 BKN022 11/09 Q0990 SSW (210°) 34.5mph 47.2mph 11°C 9°C
8/02/19 14:50 EGTC 081450Z 20028G38KT 9999 BKN020 11/09 Q0990 SSW (200°) 32.2mph 43.7mph 11°C 9°C
8/02/19 14:20 EGTC 081420Z 21028G39KT 9999 BKN017 12/09 Q0990 SSW (210°) 32.2mph 44.9mph 12°C 9°C
8/02/19 13:50 EGTC 081350Z 20028G38KT 9999 BKN015 11/10 Q0991 SSW (200°) 32.2mph 43.7mph 11°C 10°C
8/02/19 13:20 EGTC 081320Z 20025G37KT 9999 -RA BKN013 11/10 Q0991 -RA SSW (200°) 28.8mph 42.6mph 11°C 10°C
8/02/19 12:50 EGTC 081250Z 20028KT 6000 RA BKN013 11/10 Q0992 RA SSW (200°) 32.2mph 11°C 10°C
8/02/19 12:20 EGTC 081220Z 20027G39KT 5000 RA BKN013 10/10 Q0999 RA SSW (200°) 31.1mph 44.9mph 10°C 10°C
8/02/19 11:50 EGTC 081150Z 19027KT 5000 RA BKN011 10/09 Q0993 RA S (190°) 31.1mph 10°C 9°C
8/02/19 11:20 EGTC 081120Z 20025KT 2500 RA BKN011 10/09 Q0994 RA SSW (200°) 28.8mph 10°C 9°C
8/02/19 10:50 EGTC 081050Z 19027KT 5000 RA BKN012 10/09 Q0995 RA S (190°) 31.1mph 10°C 9°C
8/02/19 10:20 EGTC 081020Z 19025G35KT 8000 -RA BKN012 10/09 Q0995 -RA S (190°) 28.8mph 40.3mph 10°C 9°C
8/02/19 09:50 EGTC 080950Z 19024G34KT 9999 BKN013 10/09 Q0996 S (190°) 27.6mph 39.1mph 10°C 9°C
8/02/19 09:20 EGTC 080920Z 19024G34KT 9999 BKN012 10/09 Q0996 S (190°) 27.6mph 39.1mph 10°C 9°C
8/02/19 08:50 EGTC 080850Z 19023KT 9999 -RA BKN012 10/09 Q0997 -RA S (190°) 26.5mph 10°C 9°C
8/02/19 08:20 EGTC 080820Z 20024G37KT 9999 -RA BKN013 10/08 Q0997 -RA SSW (200°) 27.6mph 42.6mph 10°C 8°C
8/02/19 07:50 EGTC 080750Z 19026KT 9999 -RA BKN013 10/09 Q0998 -RA S (190°) 29.9mph 10°C 9°C
8/02/19 07:20 EGTC 080720Z 19025KT 8000 -RA BKN013 09/09 Q0998 -RA S (190°) 28.8mph 9°C 9°C
7/02/19 17:50 EGTC 071750Z 22012KT 9999 FEW034 06/04 Q1007 SW (220°) 13.8mph 6°C 4°C
7/02/19 17:20 EGTC 071720Z 23014KT 9999 FEW043 07/04 Q1006 SW (230°) 16.1mph 7°C 4°C
7/02/19 16:50 EGTC 071650Z 23014KT 9999 FEW025 07/04 Q1006 SW (230°) 16.1mph 7°C 4°C
7/02/19 15:50 EGTC 071550Z 24012KT 9999 FEW042 08/02 Q1006 WSW (240°) 13.8mph 8°C 2°C
7/02/19 15:20 EGTC 071520Z 25013G26KT 230V290 9999 SCT041 09/03 Q1005 WSW (250°) 15.0mph 29.9mph 9°C 3°C
7/02/19 14:50 EGTC 071450Z 25015G32KT 210V280 9999 SCT043 09/02 Q1004 WSW (250°) 17.3mph 36.8mph 9°C 2°C
7/02/19 13:50 EGTC 071350Z 25016G28KT 9999 BKN040 10/03 Q1004 WSW (250°) 18.4mph 32.2mph 10°C 3°C
7/02/19 13:20 EGTC 071320Z 25018G28KT 9999 BKN038 09/02 Q1004 WSW (250°) 20.7mph 32.2mph 9°C 2°C
7/02/19 12:50 EGTC 071250Z 25018G30KT 9999 SCT038 09/02 Q1004 WSW (250°) 20.7mph 34.5mph 9°C 2°C
7/02/19 12:20 EGTC 071220Z 25017KT 230V290 9999 SCT040 09/02 Q1003 WSW (250°) 19.6mph 9°C 2°C
7/02/19 11:50 EGTC 071150Z 24018G28KT 9999 SCT036 SCT045 08/02 Q1003 WSW (240°) 20.7mph 32.2mph 8°C 2°C
7/02/19 11:20 EGTC 071120Z 24020G34KT 9999 SCT034 SCT048 08/03 Q1003 WSW (240°) 23.0mph 39.1mph 8°C 3°C
7/02/19 10:50 EGTC 071050Z 24019G31KT 9999 SCT030 SCT042 08/03 Q1002 WSW (240°) 21.9mph 35.7mph 8°C 3°C
7/02/19 10:20 EGTC 071020Z 24018G31KT 9999 SCT032 08/04 Q1002 WSW (240°) 20.7mph 35.7mph 8°C 4°C
7/02/19 09:50 EGTC 070950Z 23020G31KT 9999 SCT020 07/04 Q1001 SW (230°) 23.0mph 35.7mph 7°C 4°C
7/02/19 09:20 EGTC 070920Z 23021G31KT 9999 FEW020 SCT031 07/04 Q1001 SW (230°) 24.2mph 35.7mph 7°C 4°C
7/02/19 08:20 EGTC 070820Z 23017G31KT 9999 SCT040 06/04 Q1001 SW (230°) 19.6mph 35.7mph 6°C 4°C
7/02/19 07:50 EGTC 070750Z 23021G31KT 9999 FEW035 06/03 Q1000 SW (230°) 24.2mph 35.7mph 6°C 3°C
7/02/19 07:20 EGTC 070720Z 23021G34KT 9999 FEW038 06/02 Q1000 SW (230°) 24.2mph 39.1mph 6°C 2°C
6/02/19 17:50 EGTC 061750Z 16006KT CAVOK 07/06 Q1013 SSE (160°) 6.9mph 7°C 6°C
6/02/19 17:20 EGTC 061720Z 15006KT CAVOK 08/06 Q1013 SSE (150°) 6.9mph 8°C 6°C
6/02/19 16:50 EGTC 061650Z 17005KT CAVOK 08/06 Q1014 S (170°) 5.8mph 8°C 6°C
6/02/19 16:20 EGTC 061620Z 20005KT 9999 FEW018 08/06 Q1014 SSW (200°) 5.8mph 8°C 6°C
6/02/19 15:50 EGTC 061550Z 20006KT 9999 FEW017 08/06 Q1014 SSW (200°) 6.9mph 8°C 6°C